Strona główna
METAR-TAF:

METAR-TAF

Lotnisko :

Baza lotnicza

Ismailia, Egipt

Szerokość geograficzna: 30-35-54N, Długość geograficzna: 032-14-13E, wysokość: 13 m

Aktualna obserwacja pogody

Raport powstał 8 godziny i 8 minut temu, godzina 16:00 UTC
Wiatr 13 kt od południowo-południowy wschód
Temperatura 31°C
Wilgotność 27%
Ciśnienie 1010 hPa
Widzialność 10 km lub więcej
Brak chmur poniżej 1500 m i brak chmur cumulonimbus

METAR: HEIS 041600Z 16013KT CAVOK 31/10 Q1010

czas: 02:08 (00:08 UTC)


TAF: brakujący

Obserwacja i prognoza pogody dla ponad 4000 lotnisk (raport METAR i TAF).

Dostępne stacje oznaczono żółtymi i czerwonymi punktami na mapie.

Najedź kursorem aby zobaczyć nazwę stacji.

Kliknij aby zobaczyć obserwacje i prognozy pogody.

Aby zmienić mapę: kliknij na zielony przycisk z czarnym krzyżykiem, aby powiększyć; na zielony przycisk z myślnikiem, aby pomniejszyć; na zielone strzałki, aby przejść do map sąsiednich.


METAR-TAF: